Página principal
METAR-TAF:

METAR-TAF

Aeroportos :

Riga, Letónia

Aeroporto Internacional de Riga

latitude: 56-55N, longitude: 023-58E, altura: 10 m

Observação actual do tempo

O boletim foi feito há 11 minutos, às 13:20 UTC
Vento 9 kt de norte
Temperatura -7°C
Humidade 86%
Pressão 1026 hPa
Visibilidade 10 km ou mais
Poucas nuvensa uma altura de 1600 ft

METAR: EVRA 211320Z 36009KT 9999 FEW016 M07/M09 Q1026 R36/190095 NOSIG

Hora: 15:31 (13:31 UTC)

Previsão

O boletim foi feito há 23 horas e 19 minutos, às 14:12 UTC
Previsão válida de 20 às 15 UTC a 21 às 15 UTC
Vento 5 kt de norte
Visibilidade 10 km ou mais
Encobertoa uma altura de 2000 ft
Temporariamente
de 20 às 15 UTC a 20 às 21 UTC
Visibilidade: 3000 m
neve fraca
Temporariamente
de 20 às 21 UTC a 21 às 06 UTC
Visibilidade: 3000 m
Nuvens fragmentadasa uma altura de 1000 ft
neve fraca

TAF: EVRA 201412Z 2015/2115 01005KT 9999 OVC020 TEMPO 2015/2021 3000 -SN TEMPO 2021/2106 3000 -SN BKN010

Observações e previsões do tempo de mais de 4000 aeroportos (mensagens METAR e TAF).

As estações disponíveis são os pontos amarelos e vermelhos sobre o mapa.

Mova o rato sobre o mapa para ver o nome da estação.

Depois clique no ponto para visualizar as observações e previsões meteorológicas.

Para alterar o mapa : clique nos botões verdes com uma cruz preta para aumentar o zoom; no botão verde com uma pitada de zoom; ou nas setas verdes para mapas adjacentes.


METAR-TAF: